createdAt,value
2019-02-09T00:00:56.741Z,2.40
2019-02-09T00:06:03.963Z,2.40
2019-02-09T00:11:11.078Z,2.50
2019-02-09T00:16:18.270Z,2.60
2019-02-09T00:21:25.393Z,2.50
2019-02-09T00:26:32.471Z,2.60
2019-02-09T00:31:39.588Z,2.60
2019-02-09T00:36:46.700Z,2.70
2019-02-09T00:41:54.271Z,2.60
2019-02-09T00:47:02.453Z,2.60
2019-02-09T00:52:09.881Z,2.60
2019-02-09T00:57:17.285Z,2.70
2019-02-09T01:02:24.585Z,2.70
2019-02-09T01:07:33.355Z,2.70
2019-02-09T01:12:40.669Z,2.80
2019-02-09T01:17:48.162Z,2.80
2019-02-09T01:22:56.508Z,2.70
2019-02-09T01:28:06.416Z,2.70
2019-02-09T01:33:13.639Z,2.70
2019-02-09T01:38:21.241Z,2.80
2019-02-09T01:43:28.378Z,2.90
2019-02-09T01:48:35.951Z,3.00
2019-02-09T01:53:43.171Z,3.00
2019-02-09T01:58:50.628Z,3.00
2019-02-09T02:03:57.757Z,3.10
2019-02-09T02:09:08.528Z,3.00
2019-02-09T02:14:23.795Z,3.10
2019-02-09T02:19:31.063Z,3.00
2019-02-09T02:24:38.146Z,3.10
2019-02-09T02:29:46.946Z,3.10
2019-02-09T02:34:55.152Z,3.20
2019-02-09T02:40:02.743Z,3.10
2019-02-09T02:45:12.115Z,3.10
2019-02-09T02:50:20.253Z,3.00
2019-02-09T02:55:28.193Z,2.90
2019-02-09T03:00:37.448Z,2.80
2019-02-09T03:05:44.632Z,2.90
2019-02-09T03:10:51.714Z,2.80
2019-02-09T03:15:58.936Z,2.80
2019-02-09T03:21:06.150Z,2.80
2019-02-09T03:26:13.376Z,2.80
2019-02-09T03:31:20.491Z,2.80
2019-02-09T03:36:27.684Z,2.80
2019-02-09T03:41:35.366Z,3.00
2019-02-09T03:46:44.732Z,3.00
2019-02-09T03:51:52.436Z,3.10
2019-02-09T03:56:59.640Z,3.20
2019-02-09T04:02:06.819Z,3.20
2019-02-09T04:07:13.960Z,3.20
2019-02-09T04:12:21.151Z,3.20
2019-02-09T04:17:28.278Z,3.20
2019-02-09T04:22:35.383Z,3.30
2019-02-09T04:27:43.811Z,3.20
2019-02-09T04:32:51.016Z,3.30
2019-02-09T04:37:58.213Z,3.30
2019-02-09T04:43:06.031Z,3.30
2019-02-09T04:48:13.139Z,3.30
2019-02-09T04:53:20.232Z,3.40
2019-02-09T04:58:27.445Z,3.40
2019-02-09T05:03:34.581Z,3.40
2019-02-09T05:08:41.683Z,3.40
2019-02-09T05:13:48.764Z,3.40
2019-02-09T05:18:56.442Z,3.50
2019-02-09T05:24:03.652Z,3.40
2019-02-09T05:29:10.797Z,3.50
2019-02-09T05:34:17.910Z,3.50
2019-02-09T05:39:25.156Z,3.50
2019-02-09T05:44:32.560Z,3.60
2019-02-09T05:49:39.752Z,3.70
2019-02-09T05:54:48.238Z,3.80
2019-02-09T05:59:55.466Z,3.80
2019-02-09T06:05:02.668Z,4.00
2019-02-09T06:10:13.172Z,4.10
2019-02-09T06:15:20.844Z,4.00
2019-02-09T06:20:28.411Z,4.00
2019-02-09T06:25:35.549Z,3.90
2019-02-09T06:30:42.665Z,4.00
2019-02-09T06:35:49.960Z,3.90
2019-02-09T06:40:57.016Z,3.90
2019-02-09T06:46:04.118Z,3.80
2019-02-09T06:51:11.411Z,3.70
2019-02-09T06:56:18.524Z,3.50
2019-02-09T07:01:25.655Z,3.40
2019-02-09T07:06:32.805Z,3.30
2019-02-09T07:11:40.139Z,3.30
2019-02-09T07:16:47.425Z,3.30
2019-02-09T07:21:54.703Z,3.20
2019-02-09T07:27:01.925Z,3.30
2019-02-09T07:32:09.296Z,3.30
2019-02-09T07:37:17.524Z,3.30
2019-02-09T07:42:25.376Z,3.20
2019-02-09T07:47:32.553Z,3.20
2019-02-09T07:52:39.891Z,3.30
2019-02-09T07:57:47.320Z,3.30
2019-02-09T08:02:54.604Z,3.40
2019-02-09T08:08:02.131Z,3.40
2019-02-09T08:13:09.631Z,3.30
2019-02-09T08:18:16.743Z,3.50
2019-02-09T08:23:23.810Z,3.50
2019-02-09T08:28:31.897Z,3.50
2019-02-09T08:33:40.068Z,3.60
2019-02-09T08:38:47.512Z,3.60
2019-02-09T08:43:54.584Z,3.70
2019-02-09T08:49:01.821Z,3.80
2019-02-09T08:54:09.024Z,3.80
2019-02-09T08:59:16.203Z,4.00
2019-02-09T09:04:23.299Z,4.10
2019-02-09T09:09:30.356Z,4.20
2019-02-09T09:14:37.557Z,4.20
2019-02-09T09:19:44.784Z,4.40
2019-02-09T09:24:52.160Z,4.40
2019-02-09T09:29:59.275Z,4.50
2019-02-09T09:35:07.329Z,4.50
2019-02-09T09:40:23.909Z,4.50
2019-02-09T09:45:32.812Z,4.60
2019-02-09T09:50:40.165Z,4.70
2019-02-09T09:55:55.355Z,4.90
2019-02-09T10:01:02.999Z,5.00
2019-02-09T10:06:10.131Z,5.00
2019-02-09T10:11:17.340Z,5.10
2019-02-09T10:16:24.850Z,5.20
2019-02-09T10:21:32.059Z,5.50
2019-02-09T10:26:39.104Z,5.60
2019-02-09T10:31:46.296Z,5.40
2019-02-09T10:36:53.528Z,5.40
2019-02-09T10:42:01.727Z,5.40
2019-02-09T10:47:08.919Z,5.40
2019-02-09T10:52:16.106Z,5.30
2019-02-09T10:57:23.420Z,5.20
2019-02-09T11:02:30.501Z,5.10
2019-02-09T11:07:41.025Z,4.90
2019-02-09T11:12:48.303Z,4.90
2019-02-09T11:17:55.858Z,4.80
2019-02-09T11:23:03.058Z,4.70
2019-02-09T11:28:10.270Z,4.50
2019-02-09T11:33:17.361Z,4.50
2019-02-09T11:38:24.493Z,4.40
2019-02-09T11:43:31.691Z,4.40
2019-02-09T11:48:39.002Z,4.30
2019-02-09T11:53:46.127Z,4.20
2019-02-09T11:58:53.569Z,4.20
2019-02-09T12:04:00.839Z,4.20
2019-02-09T12:09:10.273Z,4.10
2019-02-09T12:14:18.368Z,4.10
2019-02-09T12:19:25.488Z,3.90
2019-02-09T12:24:36.005Z,3.90
2019-02-09T12:29:45.031Z,3.80
2019-02-09T12:34:52.195Z,3.70
2019-02-09T12:39:59.299Z,3.60
2019-02-09T12:45:07.536Z,3.60
2019-02-09T12:50:16.269Z,3.50
2019-02-09T12:55:23.634Z,3.60
2019-02-09T13:00:32.696Z,3.60
2019-02-09T13:05:39.860Z,3.60
2019-02-09T13:10:46.943Z,3.60
2019-02-09T13:15:55.415Z,3.50
2019-02-09T13:21:02.503Z,3.60
2019-02-09T13:26:09.613Z,3.60
2019-02-09T13:31:16.712Z,3.60
2019-02-09T13:36:23.805Z,3.60
2019-02-09T13:41:31.101Z,3.80
2019-02-09T13:46:38.299Z,3.80
2019-02-09T13:51:45.492Z,3.80
2019-02-09T13:56:52.760Z,3.80
2019-02-09T14:01:59.952Z,3.90
2019-02-09T14:07:07.229Z,4.00
2019-02-09T14:12:14.502Z,4.10
2019-02-09T14:17:21.654Z,4.10
2019-02-09T14:22:29.175Z,4.10
2019-02-09T14:27:36.364Z,4.10
2019-02-09T14:32:43.600Z,4.10
2019-02-09T14:37:51.032Z,4.20
2019-02-09T14:42:58.213Z,4.30
2019-02-09T14:48:06.362Z,4.30
2019-02-09T14:53:14.164Z,4.40
2019-02-09T14:58:21.782Z,4.50
2019-02-09T15:03:30.751Z,4.50
2019-02-09T15:08:38.025Z,4.50
2019-02-09T15:13:45.212Z,4.70
2019-02-09T15:18:52.495Z,4.70
2019-02-09T15:23:59.720Z,4.80
2019-02-09T15:29:06.885Z,4.70
2019-02-09T15:34:14.118Z,4.70
2019-02-09T15:39:21.484Z,4.80
2019-02-09T15:44:29.628Z,4.70
2019-02-09T15:49:36.807Z,4.70
2019-02-09T15:54:44.108Z,4.70
2019-02-09T15:59:51.325Z,4.70
2019-02-09T16:04:58.523Z,4.70
2019-02-09T16:10:07.843Z,4.70
2019-02-09T16:15:17.764Z,4.70
2019-02-09T16:20:25.663Z,4.70
2019-02-09T16:25:34.432Z,4.70
2019-02-09T16:30:42.886Z,4.60
2019-02-09T16:35:51.230Z,4.70
2019-02-09T16:40:58.555Z,4.60
2019-02-09T16:46:05.848Z,4.60
2019-02-09T16:51:12.963Z,4.50
2019-02-09T16:56:20.358Z,4.40
2019-02-09T17:01:27.585Z,4.40
2019-02-09T17:06:34.767Z,4.30
2019-02-09T17:11:42.065Z,4.30
2019-02-09T17:16:49.420Z,4.20
2019-02-09T17:21:57.180Z,4.10
2019-02-09T17:27:04.481Z,4.10
2019-02-09T17:32:11.707Z,4.00
2019-02-09T17:37:19.011Z,3.80
2019-02-09T17:42:26.334Z,3.70
2019-02-09T17:47:34.136Z,3.60
2019-02-09T17:52:41.710Z,3.40
2019-02-09T17:57:48.931Z,3.50
2019-02-09T18:02:57.767Z,3.50
2019-02-09T18:08:05.481Z,3.50
2019-02-09T18:13:16.047Z,3.50
2019-02-09T18:18:24.509Z,3.50
2019-02-09T18:23:31.761Z,3.60
2019-02-09T18:28:38.924Z,3.70
2019-02-09T18:33:46.117Z,3.60
2019-02-09T18:38:53.315Z,3.60
2019-02-09T18:44:00.416Z,3.80
2019-02-09T18:49:08.124Z,3.80
2019-02-09T18:54:15.342Z,3.80
2019-02-09T18:59:22.448Z,3.80
2019-02-09T19:04:29.912Z,3.80
2019-02-09T19:09:37.097Z,3.80
2019-02-09T19:14:44.360Z,3.70
2019-02-09T19:19:52.866Z,3.60
2019-02-09T19:25:00.430Z,3.70
2019-02-09T19:30:10.377Z,3.50
2019-02-09T19:35:20.635Z,3.50
2019-02-09T19:40:27.853Z,3.50
2019-02-09T19:45:35.092Z,3.50
2019-02-09T19:50:42.257Z,3.60
2019-02-09T19:55:49.646Z,3.60
2019-02-09T20:00:56.745Z,3.60
2019-02-09T20:06:03.924Z,3.50
2019-02-09T20:11:11.003Z,3.50
2019-02-09T20:16:18.214Z,3.50
2019-02-09T20:21:25.532Z,3.50
2019-02-09T20:26:33.861Z,3.50
2019-02-09T20:31:40.984Z,3.50
2019-02-09T20:36:48.556Z,3.50
2019-02-09T20:41:55.741Z,3.60
2019-02-09T20:47:02.851Z,3.50
2019-02-09T20:52:10.413Z,3.50
2019-02-09T20:57:17.709Z,3.60
2019-02-09T21:02:24.933Z,3.70
2019-02-09T21:07:32.143Z,3.80
2019-02-09T21:12:39.342Z,3.80
2019-02-09T21:17:46.487Z,3.90
2019-02-09T21:22:54.036Z,4.00
2019-02-09T21:28:01.271Z,4.10
2019-02-09T21:33:08.799Z,4.20
2019-02-09T21:38:15.984Z,4.20
2019-02-09T21:43:23.145Z,4.40
2019-02-09T21:48:31.026Z,4.50
2019-02-09T21:53:38.250Z,4.60
2019-02-09T21:58:46.592Z,4.70
2019-02-09T22:03:53.728Z,4.80
2019-02-09T22:09:01.267Z,4.70
2019-02-09T22:14:10.216Z,4.80
2019-02-09T22:19:17.652Z,4.90
2019-02-09T22:24:24.870Z,4.90
2019-02-09T22:29:32.218Z,4.90
2019-02-09T22:34:39.607Z,4.90
2019-02-09T22:39:46.987Z,4.90
2019-02-09T22:44:54.194Z,5.00
2019-02-09T22:50:04.762Z,5.00
2019-02-09T22:55:12.825Z,4.90
2019-02-09T23:00:52.955Z,4.90
2019-02-09T23:06:36.521Z,5.00
2019-02-09T23:11:43.819Z,5.20
2019-02-09T23:16:51.043Z,5.20
2019-02-09T23:21:58.457Z,5.30
2019-02-09T23:27:06.094Z,5.40
2019-02-09T23:32:14.171Z,5.40
2019-02-09T23:37:21.432Z,5.40
2019-02-09T23:42:28.611Z,5.50
2019-02-09T23:47:35.735Z,5.60
2019-02-09T23:52:43.001Z,5.50
2019-02-09T23:57:50.119Z,5.50
